Three Stars — 3ELI2 — position and weather

sailwx.info

Track history (hours):
 
Tides and Currents Weather Stations Pressure Air Temp Water Temp Dewpoint Dewpoint Depression Visibility Wind Speed Wind Dir Waves Ship Positions

Three Stars

Last reported at 2014-Dec-31 01:32 UTC. Time now 2015-Jan-31 10:11 UTC.
Position N 10°23' W 016°52'.
Warning: this ship's position is 31 days out of date.

Length 225 m; draft 10.4 m.

Type: Cargo ship. MMSI: 372950000.

Date/timePositionNaut miles runAvg speedWind from/ knotsBaromVisibWave heightAir tempDewpointWater temp
2014-Dec-31 01:32N 10°23' W 016°52'4912.4
2014-Dec-30 21:33N 10°11' W 016°03'1313.1
2014-Dec-30 20:33N 10°09' W 015°50'1313.1
2014-Dec-30 19:33N 10°08' W 015°37'1312.8
2014-Dec-30 18:33N 10°05' W 015°24'1712.7
2014-Dec-30 17:15N 10°09' W 015°08'2212.7
2014-Dec-30 15:32N 10°20' W 014°48'1110.7
2014-Dec-30 14:29N 10°30' W 014°43'8 9.1
2014-Dec-30 13:33N 10°37' W 014°38'2 1.7
2014-Dec-30 12:30N 10°39' W 014°38'0 0.0
2014-Dec-30 11:33N 10°39' W 014°38'0 0.0
2014-Dec-30 10:33N 10°39' W 014°38'0 0.0
2014-Dec-30 09:33N 10°39' W 014°38'0 0.0
2014-Dec-30 08:33N 10°39' W 014°38'0 0.0
2014-Dec-30 07:21N 10°39' W 014°38'0 0.0
2014-Dec-30 06:09N 10°39' W 014°38'0 0.0
2014-Dec-30 05:27N 10°39' W 014°38'0 0.0
2014-Dec-30 04:27N 10°39' W 014°38'0 0.0
2014-Dec-30 03:27N 10°39' W 014°38'0 0.0
2014-Dec-30 02:27N 10°39' W 014°38'0 0.0
2014-Dec-30 01:27N 10°39' W 014°38'0 0.0
2014-Dec-30 00:27N 10°39' W 014°38'0 0.0
2014-Dec-29 23:33N 10°39' W 014°38'0 0.0
2014-Dec-29 22:33N 10°39' W 014°38'0 0.0
2014-Dec-29 21:33N 10°39' W 014°38'0 0.0
2014-Dec-29 20:33N 10°39' W 014°38'0 0.0
2014-Dec-29 19:21N 10°39' W 014°38'0 0.0
2014-Dec-29 18:33N 10°39' W 014°38'0 0.0
2014-Dec-29 17:33N 10°39' W 014°38'0 0.0
2014-Dec-29 16:24N 10°39' W 014°38'0 0.0
2014-Dec-29 15:24N 10°39' W 014°38'0 0.0
2014-Dec-29 14:33N 10°39' W 014°38'0 0.1
2014-Dec-29 13:27N 10°39' W 014°38'0 0.4
2014-Dec-29 12:33N 10°38' W 014°38'0 0.1
2014-Dec-29 11:33N 10°38' W 014°38'0 0.0
2014-Dec-29 10:33N 10°38' W 014°38'0 0.2
2014-Dec-29 09:03N 10°38' W 014°38'0 0.0
2014-Dec-29 08:33N 10°38' W 014°38'0 0.0
2014-Dec-29 07:24N 10°38' W 014°38'0 0.0
2014-Dec-29 06:21N 10°38' W 014°38'0 0.0
2014-Dec-29 05:27N 10°38' W 014°38'0 0.0
2014-Dec-29 04:27N 10°38' W 014°38'0 0.0
2014-Dec-29 03:27N 10°38' W 014°38'0 0.2
2014-Dec-29 02:30N 10°38' W 014°38'0 0.1
2014-Dec-29 01:30N 10°38' W 014°38'0 0.0
2014-Dec-29 00:30N 10°38' W 014°38'0 0.0
2014-Dec-28 23:33N 10°38' W 014°38'0 0.0
2014-Dec-28 22:33N 10°38' W 014°38'0 0.0
2014-Dec-28 21:33N 10°38' W 014°38'0 0.2
2014-Dec-28 20:33N 10°38' W 014°38'0 0.0
2014-Dec-28 19:33N 10°38' W 014°38'0 0.0
2014-Dec-28 18:33N 10°38' W 014°38'0 0.0
2014-Dec-28 17:24N 10°38' W 014°38'0 0.0
2014-Dec-28 16:24N 10°38' W 014°38'0 0.1
2014-Dec-28 15:21N 10°38' W 014°38'4 4.6
2014-Dec-28 14:33N 10°35' W 014°40'9 8.3
2014-Dec-28 13:26N 10°27' W 014°44'1 0.2
2014-Dec-28 09:32N 10°26' W 014°45'0 0.1
2014-Dec-28 08:05N 10°26' W 014°45'0 0.0
2014-Dec-28 07:17N 10°26' W 014°45'0 0.0
2014-Dec-28 06:29N 10°26' W 014°45'0 0.0
2014-Dec-28 05:26N 10°26' W 014°45'0 0.0
2014-Dec-28 04:29N 10°26' W 014°45'0 0.0
2014-Dec-28 03:32N 10°26' W 014°45'0 0.1
2014-Dec-28 02:23N 10°26' W 014°45'0 0.3
2014-Dec-28 01:29N 10°26' W 014°45'0 0.0
2014-Dec-28 00:32N 10°26' W 014°45'0 0.0
2014-Dec-27 23:17N 10°26' W 014°45'0 0.0
2014-Dec-27 22:32N 10°26' W 014°45'0 0.0
2014-Dec-27 21:32N 10°26' W 014°45'0 0.0
2014-Dec-27 20:23N 10°26' W 014°45'0 0.1
2014-Dec-27 19:20N 10°26' W 014°45'0 0.1
2014-Dec-27 18:26N 10°26' W 014°45'0 0.1
2014-Dec-27 17:23N 10°26' W 014°45'0 0.1
2014-Dec-27 15:11N 10°26' W 014°45'0 0.1
2014-Dec-27 14:26N 10°26' W 014°45'0 0.0
2014-Dec-27 13:32N 10°26' W 014°45'0 0.0
2014-Dec-27 11:29N 10°26' W 014°45'0 0.0
2014-Dec-27 09:32N 10°26' W 014°45'0 0.1
2014-Dec-27 08:20N 10°26' W 014°45'0 0.2
2014-Dec-27 07:23N 10°26' W 014°45'0 0.0
2014-Dec-27 05:20N 10°26' W 014°45'0 0.0
2014-Dec-27 04:08N 10°26' W 014°45'0 0.0
2014-Dec-27 03:11N 10°26' W 014°45'0 0.1
2014-Dec-27 02:26N 10°26' W 014°45'0 0.2
2014-Dec-27 01:32N 10°26' W 014°45'0 0.1
2014-Dec-26 23:17N 10°26' W 014°45'0 0.0
2014-Dec-26 22:32N 10°26' W 014°45'0 0.0
2014-Dec-26 21:32N 10°26' W 014°45'0 0.0
2014-Dec-26 20:32N 10°26' W 014°45'0 0.1
2014-Dec-26 19:05N 10°26' W 014°45'0 0.1
2014-Dec-26 18:32N 10°26' W 014°45'0 0.1
2014-Dec-26 17:29N 10°26' W 014°45'0 0.0
2014-Dec-26 16:32N 10°26' W 014°45'0 0.0
2014-Dec-26 15:20N 10°26' W 014°45'0 0.1
2014-Dec-26 14:23N 10°26' W 014°45'0 0.2
2014-Dec-26 13:26N 10°26' W 014°45'0 0.0
2014-Dec-26 12:26N 10°26' W 014°45'0 0.0
2014-Dec-26 11:08N 10°26' W 014°45'0 0.0
2014-Dec-26 10:29N 10°26' W 014°45'0 0.0
2014-Dec-26 09:32N 10°26' W 014°45'0 0.0
2014-Dec-26 08:32N 10°26' W 014°45'0 0.1
2014-Dec-26 06:32N 10°26' W 014°45'0 0.0
2014-Dec-26 05:26N 10°26' W 014°45'0 0.0
2014-Dec-26 04:32N 10°26' W 014°45'0 0.0
2014-Dec-26 03:29N 10°26' W 014°45'0 0.0
2014-Dec-26 02:29N 10°26' W 014°45'0 0.1
2014-Dec-26 01:20N 10°26' W 014°45'0 0.2
2014-Dec-26 00:29N 10°26' W 014°45'0 0.0
2014-Dec-25 23:29N 10°26' W 014°45'0 0.0
2014-Dec-25 22:32N 10°26' W 014°45'0 0.0
2014-Dec-25 21:26N 10°26' W 014°45'0 0.0
2014-Dec-25 20:23N 10°26' W 014°45'0 0.1
2014-Dec-25 19:29N 10°26' W 014°45'0 0.0
2014-Dec-25 18:26N 10°26' W 014°45'0 0.2
2014-Dec-25 17:29N 10°26' W 014°45'0 0.1
2014-Dec-25 16:29N 10°26' W 014°45'0 0.0
2014-Dec-25 15:32N 10°26' W 014°45'0 0.0
2014-Dec-25 13:23N 10°26' W 014°45'0 0.2
2014-Dec-25 12:32N 10°26' W 014°45'0 0.1
2014-Dec-25 10:08N 10°26' W 014°45'0 0.4
2014-Dec-25 09:33N 10°27' W 014°45'5 5.2
2014-Dec-25 08:33N 10°22' W 014°47'1413.8
2014-Dec-25 07:33N 10°14' W 014°58'1414.1
2014-Dec-25 06:33N 10°08' W 015°11'1513.7
2014-Dec-25 05:29N 10°04' W 015°25'2512.7
2014-Dec-25 03:30N 10°04' W 015°51'8411.3
2014-Dec-24 20:07N 10°48' W 017°04'713.1
2014-Dec-24 19:33N 10°55' W 017°06'1413.1
2014-Dec-24 18:31N 11°07' W 017°12'1912.8
2014-Dec-24 17:05N 11°25' W 017°17'713.1
2014-Dec-24 16:34N 11°31' W 017°20'1413.5
2014-Dec-24 15:33N 11°44' W 017°24'2013.7
2014-Dec-24 14:08N 12°03' W 017°31'5213.6
2014-Dec-24 10:19N 12°52' W 017°48'  
Track history (hours):
 
Tides and Currents Weather Stations Pressure Air Temp Water Temp Dewpoint Dewpoint Depression Visibility Wind Speed Wind Dir Waves Ship Positions

Three Stars

Last reported at 2014-Dec-31 01:32 UTC. Time now 2015-Jan-31 10:11 UTC.
Position N 10°23' W 016°52'.
Warning: this ship's position is 31 days out of date.

Length 225 m; draft 10.4 m.

Type: Cargo ship. MMSI: 372950000.

Date/timePositionNaut miles runAvg speedWind from/ knotsBaromVisibWave heightAir tempDewpointWater temp
2014-Dec-31 01:32N 10°23' W 016°52'4912.4
2014-Dec-30 21:33N 10°11' W 016°03'1313.1
2014-Dec-30 20:33N 10°09' W 015°50'1313.1
2014-Dec-30 19:33N 10°08' W 015°37'1312.8
2014-Dec-30 18:33N 10°05' W 015°24'1712.7
2014-Dec-30 17:15N 10°09' W 015°08'2212.7
2014-Dec-30 15:32N 10°20' W 014°48'1110.7
2014-Dec-30 14:29N 10°30' W 014°43'8 9.1
2014-Dec-30 13:33N 10°37' W 014°38'2 1.7
2014-Dec-30 12:30N 10°39' W 014°38'0 0.0
2014-Dec-30 11:33N 10°39' W 014°38'0 0.0
2014-Dec-30 10:33N 10°39' W 014°38'0 0.0
2014-Dec-30 09:33N 10°39' W 014°38'0 0.0
2014-Dec-30 08:33N 10°39' W 014°38'0 0.0
2014-Dec-30 07:21N 10°39' W 014°38'0 0.0
2014-Dec-30 06:09N 10°39' W 014°38'0 0.0
2014-Dec-30 05:27N 10°39' W 014°38'0 0.0
2014-Dec-30 04:27N 10°39' W 014°38'0 0.0
2014-Dec-30 03:27N 10°39' W 014°38'0 0.0
2014-Dec-30 02:27N 10°39' W 014°38'0 0.0
2014-Dec-30 01:27N 10°39' W 014°38'0 0.0
2014-Dec-30 00:27N 10°39' W 014°38'0 0.0
2014-Dec-29 23:33N 10°39' W 014°38'0 0.0
2014-Dec-29 22:33N 10°39' W 014°38'0 0.0
2014-Dec-29 21:33N 10°39' W 014°38'0 0.0
2014-Dec-29 20:33N 10°39' W 014°38'0 0.0
2014-Dec-29 19:21N 10°39' W 014°38'0 0.0
2014-Dec-29 18:33N 10°39' W 014°38'0 0.0
2014-Dec-29 17:33N 10°39' W 014°38'0 0.0
2014-Dec-29 16:24N 10°39' W 014°38'0 0.0
2014-Dec-29 15:24N 10°39' W 014°38'0 0.0
2014-Dec-29 14:33N 10°39' W 014°38'0 0.1
2014-Dec-29 13:27N 10°39' W 014°38'0 0.4
2014-Dec-29 12:33N 10°38' W 014°38'0 0.1
2014-Dec-29 11:33N 10°38' W 014°38'0 0.0
2014-Dec-29 10:33N 10°38' W 014°38'0 0.2
2014-Dec-29 09:03N 10°38' W 014°38'0 0.0
2014-Dec-29 08:33N 10°38' W 014°38'0 0.0
2014-Dec-29 07:24N 10°38' W 014°38'0 0.0
2014-Dec-29 06:21N 10°38' W 014°38'0 0.0
2014-Dec-29 05:27N 10°38' W 014°38'0 0.0
2014-Dec-29 04:27N 10°38' W 014°38'0 0.0
2014-Dec-29 03:27N 10°38' W 014°38'0 0.2
2014-Dec-29 02:30N 10°38' W 014°38'0 0.1
2014-Dec-29 01:30N 10°38' W 014°38'0 0.0
2014-Dec-29 00:30N 10°38' W 014°38'0 0.0
2014-Dec-28 23:33N 10°38' W 014°38'0 0.0
2014-Dec-28 22:33N 10°38' W 014°38'0 0.0
2014-Dec-28 21:33N 10°38' W 014°38'0 0.2
2014-Dec-28 20:33N 10°38' W 014°38'0 0.0
2014-Dec-28 19:33N 10°38' W 014°38'0 0.0
2014-Dec-28 18:33N 10°38' W 014°38'0 0.0
2014-Dec-28 17:24N 10°38' W 014°38'0 0.0
2014-Dec-28 16:24N 10°38' W 014°38'0 0.1
2014-Dec-28 15:21N 10°38' W 014°38'4 4.6
2014-Dec-28 14:33N 10°35' W 014°40'9 8.3
2014-Dec-28 13:26N 10°27' W 014°44'1 0.2
2014-Dec-28 09:32N 10°26' W 014°45'0 0.1
2014-Dec-28 08:05N 10°26' W 014°45'0 0.0
2014-Dec-28 07:17N 10°26' W 014°45'0 0.0
2014-Dec-28 06:29N 10°26' W 014°45'0 0.0
2014-Dec-28 05:26N 10°26' W 014°45'0 0.0
2014-Dec-28 04:29N 10°26' W 014°45'0 0.0
2014-Dec-28 03:32N 10°26' W 014°45'0 0.1
2014-Dec-28 02:23N 10°26' W 014°45'0 0.3
2014-Dec-28 01:29N 10°26' W 014°45'0 0.0
2014-Dec-28 00:32N 10°26' W 014°45'0 0.0
2014-Dec-27 23:17N 10°26' W 014°45'0 0.0
2014-Dec-27 22:32N 10°26' W 014°45'0 0.0
2014-Dec-27 21:32N 10°26' W 014°45'0 0.0
2014-Dec-27 20:23N 10°26' W 014°45'0 0.1
2014-Dec-27 19:20N 10°26' W 014°45'0 0.1
2014-Dec-27 18:26N 10°26' W 014°45'0 0.1
2014-Dec-27 17:23N 10°26' W 014°45'0 0.1
2014-Dec-27 15:11N 10°26' W 014°45'0 0.1
2014-Dec-27 14:26N 10°26' W 014°45'0 0.0
2014-Dec-27 13:32N 10°26' W 014°45'0 0.0
2014-Dec-27 11:29N 10°26' W 014°45'0 0.0
2014-Dec-27 09:32N 10°26' W 014°45'0 0.1
2014-Dec-27 08:20N 10°26' W 014°45'0 0.2
2014-Dec-27 07:23N 10°26' W 014°45'0 0.0
2014-Dec-27 05:20N 10°26' W 014°45'0 0.0
2014-Dec-27 04:08N 10°26' W 014°45'0 0.0
2014-Dec-27 03:11N 10°26' W 014°45'0 0.1
2014-Dec-27 02:26N 10°26' W 014°45'0 0.2
2014-Dec-27 01:32N 10°26' W 014°45'0 0.1
2014-Dec-26 23:17N 10°26' W 014°45'0 0.0
2014-Dec-26 22:32N 10°26' W 014°45'0 0.0
2014-Dec-26 21:32N 10°26' W 014°45'0 0.0
2014-Dec-26 20:32N 10°26' W 014°45'0 0.1
2014-Dec-26 19:05N 10°26' W 014°45'0 0.1
2014-Dec-26 18:32N 10°26' W 014°45'0 0.1
2014-Dec-26 17:29N 10°26' W 014°45'0 0.0
2014-Dec-26 16:32N 10°26' W 014°45'0 0.0
2014-Dec-26 15:20N 10°26' W 014°45'0 0.1
2014-Dec-26 14:23N 10°26' W 014°45'0 0.2
2014-Dec-26 13:26N 10°26' W 014°45'0 0.0
2014-Dec-26 12:26N 10°26' W 014°45'0 0.0
2014-Dec-26 11:08N 10°26' W 014°45'0 0.0
2014-Dec-26 10:29N 10°26' W 014°45'0 0.0
2014-Dec-26 09:32N 10°26' W 014°45'0 0.0
2014-Dec-26 08:32N 10°26' W 014°45'0 0.1
2014-Dec-26 06:32N 10°26' W 014°45'0 0.0
2014-Dec-26 05:26N 10°26' W 014°45'0 0.0
2014-Dec-26 04:32N 10°26' W 014°45'0 0.0
2014-Dec-26 03:29N 10°26' W 014°45'0 0.0
2014-Dec-26 02:29N 10°26' W 014°45'0 0.1
2014-Dec-26 01:20N 10°26' W 014°45'0 0.2
2014-Dec-26 00:29N 10°26' W 014°45'0 0.0
2014-Dec-25 23:29N 10°26' W 014°45'0 0.0
2014-Dec-25 22:32N 10°26' W 014°45'0 0.0
2014-Dec-25 21:26N 10°26' W 014°45'0 0.0
2014-Dec-25 20:23N 10°26' W 014°45'0 0.1
2014-Dec-25 19:29N 10°26' W 014°45'0 0.0
2014-Dec-25 18:26N 10°26' W 014°45'0 0.2
2014-Dec-25 17:29N 10°26' W 014°45'0 0.1
2014-Dec-25 16:29N 10°26' W 014°45'0 0.0
2014-Dec-25 15:32N 10°26' W 014°45'0 0.0
2014-Dec-25 13:23N 10°26' W 014°45'0 0.2
2014-Dec-25 12:32N 10°26' W 014°45'0 0.1
2014-Dec-25 10:08N 10°26' W 014°45'0 0.4
2014-Dec-25 09:33N 10°27' W 014°45'5 5.2
2014-Dec-25 08:33N 10°22' W 014°47'1413.8
2014-Dec-25 07:33N 10°14' W 014°58'1414.1
2014-Dec-25 06:33N 10°08' W 015°11'1513.7
2014-Dec-25 05:29N 10°04' W 015°25'2512.7
2014-Dec-25 03:30N 10°04' W 015°51'8411.3
2014-Dec-24 20:07N 10°48' W 017°04'713.1
2014-Dec-24 19:33N 10°55' W 017°06'1413.1
2014-Dec-24 18:31N 11°07' W 017°12'1912.8
2014-Dec-24 17:05N 11°25' W 017°17'713.1
2014-Dec-24 16:34N 11°31' W 017°20'1413.5
2014-Dec-24 15:33N 11°44' W 017°24'2013.7
2014-Dec-24 14:08N 12°03' W 017°31'5213.6
2014-Dec-24 10:19N 12°52' W 017°48'  

Dump ship's entire track history